createdAt,value
2018-11-28T00:00:11.826Z,34.50
2018-11-28T00:02:40.028Z,39.30
2018-11-28T00:05:12.161Z,40.50
2018-11-28T00:07:40.690Z,33.67
2018-11-28T00:10:12.193Z,38.13
2018-11-28T00:12:40.506Z,40.37
2018-11-28T00:15:10.965Z,37.85
2018-11-28T00:17:39.167Z,41.02
2018-11-28T00:20:23.650Z,36.23
2018-11-28T00:22:51.879Z,36.55
2018-11-28T00:25:20.297Z,40.43
2018-11-28T00:27:48.567Z,37.77
2018-11-28T00:30:18.400Z,38.83
2018-11-28T00:32:46.585Z,40.95
2018-11-28T00:35:15.708Z,39.10
2018-11-28T00:37:43.893Z,36.27
2018-11-28T00:40:16.309Z,34.40
2018-11-28T00:42:44.491Z,41.80
2018-11-28T00:45:14.348Z,42.48
2018-11-28T00:47:42.568Z,40.70
2018-11-28T00:50:27.209Z,38.90
2018-11-28T00:52:55.423Z,39.90
2018-11-28T00:55:23.686Z,34.43
2018-11-28T00:57:52.031Z,34.93
2018-11-28T01:00:21.789Z,46.83
2018-11-28T01:02:50.317Z,38.57
2018-11-28T01:05:18.621Z,45.53
2018-11-28T01:07:47.725Z,40.33
2018-11-28T01:10:17.012Z,41.37
2018-11-28T01:12:45.353Z,39.70
2018-11-28T01:15:14.396Z,37.23
2018-11-28T01:17:42.601Z,38.67
2018-11-28T01:20:13.629Z,37.53
2018-11-28T01:22:42.002Z,36.17
2018-11-28T01:25:12.213Z,37.57
2018-11-28T01:27:40.592Z,36.07
2018-11-28T01:30:14.749Z,37.30
2018-11-28T01:32:43.164Z,38.58
2018-11-28T01:35:15.142Z,38.30
2018-11-28T01:37:43.536Z,39.18
2018-11-28T01:40:13.002Z,39.60
2018-11-28T01:42:41.268Z,39.03
2018-11-28T01:45:11.093Z,39.97
2018-11-28T01:47:39.278Z,36.45
2018-11-28T01:50:10.719Z,37.47
2018-11-28T01:52:38.962Z,37.83
2018-11-28T01:55:08.742Z,37.87
2018-11-28T01:57:36.921Z,37.07
2018-11-28T02:00:10.521Z,35.03
2018-11-28T02:02:38.718Z,39.30
2018-11-28T02:05:07.480Z,34.30
2018-11-28T02:07:35.734Z,41.50
2018-11-28T02:10:04.130Z,42.27
2018-11-28T02:12:32.334Z,41.75
2018-11-28T02:15:00.508Z,43.90
2018-11-28T02:17:28.701Z,35.00
2018-11-28T02:19:56.905Z,36.73
2018-11-28T02:22:25.108Z,41.17
2018-11-28T02:24:53.515Z,38.93
2018-11-28T02:27:21.713Z,41.73
2018-11-28T02:29:49.990Z,39.07
2018-11-28T02:32:18.587Z,39.23
2018-11-28T02:34:46.821Z,34.03
2018-11-28T02:37:15.035Z,39.17
2018-11-28T02:39:43.306Z,37.83
2018-11-28T02:42:11.570Z,38.10
2018-11-28T02:44:39.777Z,56.50
2018-11-28T02:47:07.985Z,35.70
2018-11-28T02:49:36.185Z,41.63
2018-11-28T02:52:04.401Z,42.07
2018-11-28T02:54:32.595Z,42.07
2018-11-28T02:57:00.842Z,37.03
2018-11-28T02:59:29.074Z,39.33
2018-11-28T03:01:57.283Z,40.40
2018-11-28T03:04:25.517Z,39.97
2018-11-28T03:06:53.733Z,40.67
2018-11-28T03:09:21.971Z,39.67
2018-11-28T03:11:50.176Z,38.33
2018-11-28T03:14:18.397Z,39.33
2018-11-28T03:16:46.601Z,45.30
2018-11-28T03:19:14.789Z,42.57
2018-11-28T03:21:43.031Z,37.20
2018-11-28T03:24:11.218Z,43.13
2018-11-28T03:26:39.445Z,40.10
2018-11-28T03:29:07.624Z,43.80
2018-11-28T03:31:35.843Z,37.40
2018-11-28T03:34:04.057Z,41.67
2018-11-28T03:36:32.283Z,38.30
2018-11-28T03:39:00.500Z,36.00
2018-11-28T03:41:28.699Z,39.90
2018-11-28T03:43:56.926Z,41.17
2018-11-28T03:46:25.141Z,42.13
2018-11-28T03:48:53.341Z,36.33
2018-11-28T03:51:21.546Z,41.03
2018-11-28T03:53:49.748Z,39.47
2018-11-28T03:56:17.932Z,38.47
2018-11-28T03:58:46.129Z,42.67
2018-11-28T04:01:14.319Z,41.70
2018-11-28T04:03:42.513Z,40.03
2018-11-28T04:06:10.709Z,39.63
2018-11-28T04:08:38.909Z,38.47
2018-11-28T04:11:07.085Z,39.10
2018-11-28T04:13:35.274Z,40.50
2018-11-28T04:16:03.479Z,38.93
2018-11-28T04:18:31.681Z,35.57
2018-11-28T04:20:59.878Z,39.70
2018-11-28T04:23:28.246Z,39.77
2018-11-28T04:25:56.470Z,36.40
2018-11-28T04:28:24.730Z,37.13
2018-11-28T04:30:52.954Z,41.03
2018-11-28T04:33:21.182Z,43.67
2018-11-28T04:35:49.353Z,41.47
2018-11-28T04:38:17.545Z,37.90
2018-11-28T04:40:45.752Z,35.67
2018-11-28T04:43:13.912Z,46.67
2018-11-28T04:45:42.097Z,41.93
2018-11-28T04:48:10.287Z,40.47
2018-11-28T04:50:38.469Z,41.10
2018-11-28T04:53:06.897Z,42.77
2018-11-28T04:55:35.117Z,42.60
2018-11-28T04:58:03.877Z,42.70
2018-11-28T05:00:32.094Z,40.67
2018-11-28T05:03:00.293Z,45.20
2018-11-28T05:05:28.480Z,38.73
2018-11-28T05:07:56.694Z,45.07
2018-11-28T05:10:28.601Z,40.30
2018-11-28T05:12:57.591Z,43.73
2018-11-28T05:15:26.969Z,38.03
2018-11-28T05:17:55.174Z,38.17
2018-11-28T05:20:26.244Z,37.60
2018-11-28T05:22:54.551Z,39.13
2018-11-28T05:25:24.738Z,39.13
2018-11-28T05:27:53.889Z,41.90
2018-11-28T05:30:24.114Z,40.33
2018-11-28T05:32:52.350Z,39.03
2018-11-28T05:35:24.905Z,42.07
2018-11-28T05:37:53.077Z,41.70
2018-11-28T05:40:25.597Z,37.50
2018-11-28T05:42:53.962Z,39.20
2018-11-28T05:45:22.169Z,39.67
2018-11-28T05:47:50.345Z,42.67
2018-11-28T05:50:19.565Z,41.83
2018-11-28T05:52:47.744Z,40.73
2018-11-28T05:55:16.762Z,39.20
2018-11-28T05:57:44.985Z,39.70
2018-11-28T06:00:33.285Z,38.73
2018-11-28T06:03:01.658Z,37.10
2018-11-28T06:05:29.859Z,35.30
2018-11-28T06:07:58.036Z,34.23
2018-11-28T06:10:26.233Z,41.50
2018-11-28T06:12:54.516Z,37.43
2018-11-28T06:15:22.714Z,40.40
2018-11-28T06:17:50.905Z,37.37
2018-11-28T06:20:19.078Z,38.20
2018-11-28T06:22:47.269Z,38.13
2018-11-28T06:25:16.858Z,40.07
2018-11-28T06:27:44.706Z,40.30
2018-11-28T06:30:14.084Z,36.07
2018-11-28T06:32:42.277Z,38.03
2018-11-28T06:35:10.977Z,37.67
2018-11-28T06:37:39.187Z,39.77
2018-11-28T06:40:14.492Z,36.87
2018-11-28T06:42:42.844Z,37.70
2018-11-28T06:45:16.086Z,34.93
2018-11-28T06:47:44.257Z,37.83
2018-11-28T06:50:13.657Z,34.17
2018-11-28T06:52:42.184Z,39.13
2018-11-28T06:55:11.778Z,36.80
2018-11-28T06:57:40.139Z,40.10
2018-11-28T07:00:11.717Z,42.17
2018-11-28T07:02:39.898Z,40.20
2018-11-28T07:05:08.089Z,35.27
2018-11-28T07:07:36.277Z,41.40
2018-11-28T07:10:05.970Z,37.70
2018-11-28T07:12:34.158Z,40.40
2018-11-28T07:15:02.337Z,41.67
2018-11-28T07:17:30.511Z,40.10
2018-11-28T07:19:58.726Z,36.17
2018-11-28T07:22:26.938Z,38.10
2018-11-28T07:24:55.124Z,37.13
2018-11-28T07:27:23.474Z,36.73
2018-11-28T07:29:51.655Z,40.00
2018-11-28T07:32:19.837Z,35.97
2018-11-28T07:34:48.009Z,41.50
2018-11-28T07:37:16.204Z,35.80
2018-11-28T07:39:44.377Z,39.37
2018-11-28T07:42:12.544Z,36.73
2018-11-28T07:44:41.030Z,36.90
2018-11-28T07:47:08.898Z,36.37
2018-11-28T07:49:37.085Z,37.37
2018-11-28T07:52:05.533Z,33.87
2018-11-28T07:54:33.730Z,34.37
2018-11-28T07:57:01.901Z,38.03
2018-11-28T07:59:30.130Z,34.43
2018-11-28T08:01:58.291Z,37.93
2018-11-28T08:04:26.622Z,38.63
2018-11-28T08:06:54.685Z,34.40
2018-11-28T08:09:22.849Z,37.03
2018-11-28T08:11:51.033Z,44.20
2018-11-28T08:14:19.198Z,36.97
2018-11-28T08:16:48.166Z,35.00
2018-11-28T08:19:15.533Z,34.87
2018-11-28T08:21:43.713Z,34.40
2018-11-28T08:24:11.906Z,38.70
2018-11-28T08:26:40.077Z,34.73
2018-11-28T08:29:08.270Z,35.90
2018-11-28T08:31:36.438Z,37.80
2018-11-28T08:34:04.985Z,32.40
2018-11-28T08:36:33.170Z,40.70
2018-11-28T08:39:01.810Z,34.10
2018-11-28T08:41:29.653Z,36.90
2018-11-28T08:43:57.825Z,39.40
2018-11-28T08:46:26.961Z,35.50
2018-11-28T08:48:54.148Z,36.80
2018-11-28T08:51:22.340Z,37.63
2018-11-28T08:53:50.564Z,39.00
2018-11-28T08:56:18.692Z,36.13
2018-11-28T08:58:47.002Z,39.87
2018-11-28T09:01:15.177Z,35.93
2018-11-28T09:03:43.332Z,34.63
2018-11-28T09:06:11.524Z,34.73
2018-11-28T09:08:39.697Z,32.33
2018-11-28T09:11:07.876Z,37.13
2018-11-28T09:13:36.021Z,38.63
2018-11-28T09:16:04.202Z,35.43
2018-11-28T09:18:32.388Z,39.00
2018-11-28T09:21:00.563Z,38.97
2018-11-28T09:23:28.723Z,37.90
2018-11-28T09:25:56.940Z,35.80
2018-11-28T09:28:25.098Z,30.07
2018-11-28T09:30:53.261Z,33.20
2018-11-28T09:33:21.449Z,35.20
2018-11-28T09:35:49.644Z,36.77
2018-11-28T09:38:17.831Z,35.40
2018-11-28T09:40:46.017Z,39.27
2018-11-28T09:43:14.198Z,40.20
2018-11-28T09:45:42.620Z,33.40
2018-11-28T09:48:10.840Z,36.47
2018-11-28T09:50:39.008Z,33.63
2018-11-28T09:53:07.227Z,40.80
2018-11-28T09:55:35.409Z,36.73
2018-11-28T09:58:03.590Z,37.77
2018-11-28T10:00:31.757Z,36.30
2018-11-28T10:03:00.888Z,40.60
2018-11-28T10:05:30.213Z,37.80
2018-11-28T10:07:58.381Z,39.03
2018-11-28T10:10:26.544Z,37.00
2018-11-28T10:12:54.737Z,38.43
2018-11-28T10:15:24.617Z,35.40
2018-11-28T10:17:52.801Z,40.37
2018-11-28T10:20:21.157Z,38.90
2018-11-28T10:22:50.400Z,36.40
2018-11-28T10:25:19.573Z,35.83
2018-11-28T10:27:51.056Z,36.27
2018-11-28T10:30:21.366Z,38.60
2018-11-28T10:32:50.177Z,37.53
2018-11-28T10:35:18.369Z,37.43
2018-11-28T10:37:46.555Z,38.70
2018-11-28T10:40:20.731Z,38.80
2018-11-28T10:42:50.965Z,37.63
2018-11-28T10:45:20.198Z,36.30
2018-11-28T10:47:48.405Z,36.53
2018-11-28T10:50:16.808Z,36.47
2018-11-28T10:52:45.125Z,35.97
2018-11-28T10:55:17.382Z,35.97
2018-11-28T10:57:45.624Z,35.27
2018-11-28T11:00:24.149Z,36.37
2018-11-28T11:02:57.701Z,38.60
2018-11-28T11:05:31.743Z,35.43
2018-11-28T11:08:05.246Z,33.60
2018-11-28T11:10:39.206Z,35.47
2018-11-28T11:13:12.894Z,35.83
2018-11-28T11:15:41.604Z,35.47
2018-11-28T11:18:11.758Z,33.93
2018-11-28T11:20:40.141Z,38.10
2018-11-28T11:23:08.960Z,38.83
2018-11-28T11:25:37.306Z,33.20
2018-11-28T11:28:05.855Z,37.30
2018-11-28T11:30:34.163Z,30.20
2018-11-28T11:33:02.408Z,34.70
2018-11-28T11:35:30.809Z,30.67
2018-11-28T11:37:59.189Z,34.17
2018-11-28T11:40:27.422Z,30.60
2018-11-28T11:42:55.573Z,34.03
2018-11-28T11:45:23.762Z,31.23
2018-11-28T11:47:51.961Z,34.10
2018-11-28T11:50:20.182Z,31.67
2018-11-28T11:52:48.386Z,29.83
2018-11-28T11:55:18.410Z,31.83
2018-11-28T11:57:46.942Z,31.90
2018-11-28T12:00:22.259Z,33.17
2018-11-28T12:03:01.217Z,29.90
2018-11-28T12:05:29.393Z,32.00
2018-11-28T12:07:57.591Z,35.77
2018-11-28T12:10:25.772Z,34.30
2018-11-28T12:12:53.962Z,30.33
2018-11-28T12:15:22.164Z,29.23
2018-11-28T12:17:50.575Z,29.90
2018-11-28T12:20:24.705Z,30.33
2018-11-28T12:22:53.003Z,29.87
2018-11-28T12:25:21.105Z,32.30
2018-11-28T12:27:49.320Z,33.40
2018-11-28T12:30:17.624Z,32.67
2018-11-28T12:32:45.853Z,31.07
2018-11-28T12:35:18.084Z,33.80
2018-11-28T12:37:46.324Z,32.73
2018-11-28T12:40:15.591Z,31.27
2018-11-28T12:42:46.177Z,32.40
2018-11-28T12:45:15.400Z,31.93
2018-11-28T12:47:44.600Z,33.30
2018-11-28T12:50:19.832Z,29.40
2018-11-28T12:52:48.065Z,34.30
2018-11-28T12:55:16.670Z,33.17
2018-11-28T12:57:44.847Z,34.63
2018-11-28T13:00:17.177Z,31.30
2018-11-28T13:02:45.592Z,29.17
2018-11-28T13:05:15.022Z,31.20
2018-11-28T13:07:43.218Z,29.57
2018-11-28T13:10:13.697Z,29.27
2018-11-28T13:12:42.137Z,30.93
2018-11-28T13:15:14.549Z,29.27
2018-11-28T13:17:42.858Z,30.23
2018-11-28T13:20:14.093Z,30.23
2018-11-28T13:22:42.406Z,30.30
2018-11-28T13:25:14.874Z,25.33
2018-11-28T13:27:43.169Z,28.33
2018-11-28T13:30:16.408Z,29.10
2018-11-28T13:32:45.114Z,30.30
2018-11-28T13:35:14.262Z,25.63
2018-11-28T13:37:43.601Z,28.40
2018-11-28T13:40:13.007Z,26.47
2018-11-28T13:42:41.561Z,25.90
2018-11-28T13:45:14.426Z,27.30
2018-11-28T13:47:43.456Z,26.20
2018-11-28T13:50:11.922Z,27.60
2018-11-28T13:52:40.125Z,25.90
2018-11-28T13:56:58.210Z,28.03
2018-11-28T13:58:44.858Z,28.53
2018-11-28T14:01:13.056Z,23.17
2018-11-28T14:03:41.489Z,26.27
2018-11-28T14:06:15.690Z,26.80
2018-11-28T14:08:43.958Z,26.17
2018-11-28T14:11:12.194Z,22.53
2018-11-28T14:13:40.404Z,22.20
2018-11-28T14:16:08.665Z,24.77
2018-11-28T14:18:36.918Z,25.97
2018-11-28T14:21:05.261Z,23.57
2018-11-28T14:23:33.429Z,24.60
2018-11-28T14:26:01.597Z,23.97
2018-11-28T14:28:29.817Z,27.03
2018-11-28T14:30:57.977Z,23.80
2018-11-28T14:33:26.329Z,26.47
2018-11-28T14:35:54.618Z,23.37
2018-11-28T14:38:22.804Z,21.30
2018-11-28T14:40:51.316Z,22.87
2018-11-28T14:43:19.520Z,24.83
2018-11-28T14:45:47.751Z,24.80
2018-11-28T14:48:16.837Z,25.33
2018-11-28T14:50:45.008Z,26.67
2018-11-28T14:53:13.222Z,27.47
2018-11-28T14:55:41.628Z,24.33
2018-11-28T14:58:11.241Z,28.13
2018-11-28T15:00:39.545Z,25.27
2018-11-28T15:03:16.147Z,23.87
2018-11-28T15:05:51.428Z,23.63
2018-11-28T15:08:19.794Z,23.03
2018-11-28T15:11:19.425Z,26.03
2018-11-28T15:13:47.662Z,25.80
2018-11-28T15:16:15.845Z,22.93
2018-11-28T15:18:44.079Z,26.60
2018-11-28T15:21:12.261Z,28.30
2018-11-28T15:23:40.817Z,28.63
2018-11-28T15:26:09.038Z,26.50
2018-11-28T15:28:37.318Z,26.57
2018-11-28T15:31:05.773Z,29.80
2018-11-28T15:33:33.985Z,25.97
2018-11-28T15:36:02.173Z,25.70
2018-11-28T15:38:30.373Z,26.80
2018-11-28T15:40:58.629Z,26.30
2018-11-28T15:43:26.853Z,27.43
2018-11-28T15:45:55.033Z,29.90
2018-11-28T15:48:23.249Z,29.90
2018-11-28T15:50:51.447Z,28.27
2018-11-28T15:53:19.622Z,29.33
2018-11-28T15:55:47.861Z,30.50
2018-11-28T15:58:16.171Z,28.93
2018-11-28T16:00:44.713Z,26.93
2018-11-28T16:03:13.065Z,28.03
2018-11-28T16:05:41.594Z,27.87
2018-11-28T16:08:10.101Z,30.80
2018-11-28T16:10:41.229Z,31.67
2018-11-28T16:13:09.973Z,33.20
2018-11-28T16:15:48.370Z,32.50
2018-11-28T16:18:16.765Z,32.40
2018-11-28T16:20:45.151Z,30.50
2018-11-28T16:23:13.321Z,39.13
2018-11-28T16:25:41.587Z,33.80
2018-11-28T16:28:09.951Z,37.80
2018-11-28T16:30:38.163Z,36.00
2018-11-28T16:33:07.220Z,34.30
2018-11-28T16:35:36.172Z,33.33
2018-11-28T16:38:04.678Z,35.70
2018-11-28T16:40:32.863Z,39.13
2018-11-28T16:43:01.040Z,33.33
2018-11-28T16:45:29.227Z,34.47
2018-11-28T16:47:57.405Z,37.83
2018-11-28T16:50:25.616Z,35.13
2018-11-28T16:52:53.816Z,39.63
2018-11-28T16:55:22.028Z,35.40
2018-11-28T16:57:54.141Z,35.20
2018-11-28T17:00:25.727Z,35.10
2018-11-28T17:02:54.705Z,39.63
2018-11-28T17:05:23.407Z,41.70
2018-11-28T17:07:51.989Z,39.30
2018-11-28T17:10:28.052Z,37.47
2018-11-28T17:12:57.040Z,39.73
2018-11-28T17:15:25.302Z,37.10
2018-11-28T17:17:53.490Z,40.93
2018-11-28T17:20:22.711Z,37.60
2018-11-28T17:22:52.112Z,38.33
2018-11-28T17:25:21.581Z,36.13
2018-11-28T17:27:49.749Z,38.20
2018-11-28T17:30:21.947Z,37.37
2018-11-28T17:32:50.118Z,40.97
2018-11-28T17:35:18.328Z,40.40
2018-11-28T17:37:46.547Z,38.70
2018-11-28T17:40:19.857Z,40.70
2018-11-28T17:42:49.407Z,35.97
2018-11-28T17:45:18.270Z,38.40
2018-11-28T17:47:46.418Z,36.90
2018-11-28T17:50:20.574Z,36.60
2018-11-28T17:53:05.717Z,33.90
2018-11-28T17:55:38.073Z,36.00
2018-11-28T17:58:07.108Z,42.37
2018-11-28T18:00:35.334Z,42.40
2018-11-28T18:03:03.663Z,40.67
2018-11-28T18:05:31.852Z,36.00
2018-11-28T18:08:00.040Z,38.07
2018-11-28T18:10:29.116Z,33.80
2018-11-28T18:13:06.537Z,36.53
2018-11-28T18:15:40.943Z,38.47
2018-11-28T18:18:10.405Z,38.20
2018-11-28T18:20:38.622Z,35.43
2018-11-28T18:23:08.287Z,33.93
2018-11-28T18:25:39.956Z,37.30
2018-11-28T18:28:08.970Z,35.37
2018-11-28T18:30:37.951Z,35.80
2018-11-28T18:33:07.053Z,34.50
2018-11-28T18:35:35.394Z,32.53
2018-11-28T18:38:03.648Z,32.53
2018-11-28T18:40:31.849Z,34.30
2018-11-28T18:43:00.036Z,30.80
2018-11-28T18:45:29.632Z,30.17
2018-11-28T18:47:57.837Z,32.80
2018-11-28T18:50:26.031Z,28.73
2018-11-28T18:52:54.210Z,32.90
2018-11-28T18:55:22.392Z,31.80
2018-11-28T18:57:53.146Z,30.10
2018-11-28T19:00:25.426Z,28.53
2018-11-28T19:02:54.102Z,28.60
2018-11-28T19:05:22.276Z,27.73
2018-11-28T19:07:50.458Z,29.70
2018-11-28T19:10:26.010Z,28.27
2018-11-28T19:12:48.744Z,27.07
2018-11-28T19:15:19.018Z,29.50
2018-11-28T19:17:48.239Z,30.33
2018-11-28T19:20:21.458Z,28.70
2018-11-28T19:22:50.400Z,29.57
2018-11-28T19:25:20.137Z,27.20
2018-11-28T19:27:48.568Z,30.10
2018-11-28T19:30:30.705Z,28.30
2018-11-28T19:32:53.545Z,27.50
2018-11-28T19:35:22.000Z,27.33
2018-11-28T19:37:50.448Z,26.80
2018-11-28T19:40:52.087Z,31.03
2018-11-28T19:43:20.429Z,26.90
2018-11-28T19:45:49.254Z,27.07
2018-11-28T19:48:18.517Z,29.50
2018-11-28T19:50:47.132Z,28.33
2018-11-28T19:53:21.772Z,29.43
2018-11-28T19:55:50.574Z,28.93
2018-11-28T19:58:18.882Z,29.80
2018-11-28T20:00:47.717Z,28.37
2018-11-28T20:03:16.178Z,28.47
2018-11-28T20:05:44.760Z,28.10
2018-11-28T20:08:13.516Z,27.57
2018-11-28T20:10:41.917Z,28.13
2018-11-28T20:13:10.659Z,27.10
2018-11-28T20:15:40.880Z,27.67
2018-11-28T20:18:09.271Z,27.70
2018-11-28T20:20:38.059Z,27.70
2018-11-28T20:23:07.283Z,28.03
2018-11-28T20:25:36.211Z,26.93
2018-11-28T20:28:04.792Z,26.07
2018-11-28T20:30:35.292Z,26.30
2018-11-28T20:33:04.475Z,26.90
2018-11-28T20:35:33.033Z,26.87
2018-11-28T20:38:02.661Z,27.83
2018-11-28T20:40:31.499Z,25.00
2018-11-28T20:42:59.967Z,25.13
2018-11-28T20:45:29.013Z,25.83
2018-11-28T20:47:57.507Z,25.87
2018-11-28T20:50:28.094Z,25.20
2018-11-28T20:52:57.829Z,26.93
2018-11-28T20:55:26.013Z,23.53
2018-11-28T20:57:54.179Z,25.50
2018-11-28T21:00:23.842Z,23.10
2018-11-28T21:02:52.034Z,25.00
2018-11-28T21:05:20.205Z,24.63
2018-11-28T21:07:48.418Z,24.10
2018-11-28T21:10:22.283Z,25.60
2018-11-28T21:12:50.444Z,25.30
2018-11-28T21:15:18.672Z,26.10
2018-11-28T21:17:47.181Z,24.80
2018-11-28T21:20:16.463Z,24.43
2018-11-28T21:22:46.278Z,24.90
2018-11-28T21:25:14.439Z,25.70
2018-11-28T21:27:42.626Z,24.03
2018-11-28T21:30:14.718Z,25.27
2018-11-28T21:32:43.300Z,23.53
2018-11-28T21:35:13.891Z,24.03
2018-11-28T21:37:42.126Z,22.93
2018-11-28T21:40:10.744Z,24.37
2018-11-28T21:42:38.934Z,21.60
2018-11-28T21:45:11.097Z,23.13
2018-11-28T21:47:39.414Z,22.83
2018-11-28T21:50:09.388Z,23.17
2018-11-28T21:52:37.611Z,21.60
2018-11-28T21:55:07.196Z,21.70
2018-11-28T21:57:35.377Z,23.47
2018-11-28T22:00:04.272Z,22.80
2018-11-28T22:02:32.459Z,22.30
2018-11-28T22:05:00.646Z,22.60
2018-11-28T22:07:28.829Z,21.20
2018-11-28T22:09:57.022Z,22.80
2018-11-28T22:12:25.230Z,22.13
2018-11-28T22:14:53.416Z,22.90
2018-11-28T22:17:22.637Z,21.87
2018-11-28T22:19:50.789Z,20.90
2018-11-28T22:22:18.994Z,23.10
2018-11-28T22:24:47.167Z,22.97
2018-11-28T22:27:15.352Z,21.70
2018-11-28T22:29:43.521Z,21.03
2018-11-28T22:32:11.688Z,20.93
2018-11-28T22:34:39.856Z,20.90
2018-11-28T22:37:08.053Z,22.40
2018-11-28T22:39:36.238Z,21.10
2018-11-28T22:42:04.421Z,21.47
2018-11-28T22:44:32.602Z,20.57
2018-11-28T22:47:00.799Z,21.87
2018-11-28T22:49:29.000Z,22.03
2018-11-28T22:51:57.168Z,19.73
2018-11-28T22:54:25.346Z,20.30
2018-11-28T22:56:53.568Z,21.23
2018-11-28T22:59:21.712Z,21.70
2018-11-28T23:03:58.129Z,21.67
2018-11-28T23:06:26.331Z,21.60
2018-11-28T23:08:54.569Z,21.20
2018-11-28T23:11:22.757Z,22.70
2018-11-28T23:13:50.984Z,21.43
2018-11-28T23:16:19.144Z,22.50
2018-11-28T23:18:47.351Z,22.63
2018-11-28T23:21:15.532Z,22.07
2018-11-28T23:23:43.785Z,20.33
2018-11-28T23:26:11.957Z,21.23
2018-11-28T23:28:40.142Z,20.03
2018-11-28T23:31:08.346Z,21.53
2018-11-28T23:33:36.545Z,19.47
2018-11-28T23:36:04.764Z,20.93
2018-11-28T23:38:32.975Z,20.40
2018-11-28T23:41:01.173Z,20.13
2018-11-28T23:43:29.347Z,21.23
2018-11-28T23:45:57.535Z,19.03
2018-11-28T23:48:25.731Z,19.90
2018-11-28T23:50:53.932Z,20.90
2018-11-28T23:53:22.364Z,20.80
2018-11-28T23:55:50.691Z,20.10
2018-11-28T23:58:18.906Z,20.47
